createdAt,value
2019-02-05T00:00:41.330Z,97.30
2019-02-05T00:03:12.273Z,97.20
2019-02-05T00:05:40.944Z,97.10
2019-02-05T00:08:09.651Z,97.10
2019-02-05T00:10:38.358Z,97.00
2019-02-05T00:13:06.777Z,96.80
2019-02-05T00:15:35.513Z,96.90
2019-02-05T00:18:04.281Z,96.80
2019-02-05T00:20:32.744Z,96.90
2019-02-05T00:23:01.407Z,96.90
2019-02-05T00:25:29.837Z,97.20
2019-02-05T00:27:58.249Z,97.20
2019-02-05T00:30:27.046Z,97.10
2019-02-05T00:32:55.709Z,97.20
2019-02-05T00:35:24.467Z,97.30
2019-02-05T00:37:53.145Z,97.40
2019-02-05T00:40:21.718Z,97.50
2019-02-05T00:42:50.133Z,97.80
2019-02-05T00:45:19.696Z,97.80
2019-02-05T00:47:48.734Z,98.10
2019-02-05T00:50:18.693Z,98.00
2019-02-05T00:52:47.181Z,98.00
2019-02-05T00:55:19.822Z,97.80
2019-02-05T00:57:48.482Z,97.90
2019-02-05T01:00:29.089Z,98.00
2019-02-05T01:02:58.108Z,98.00
2019-02-05T01:05:26.597Z,97.80
2019-02-05T01:07:55.614Z,97.70
2019-02-05T01:10:24.949Z,97.40
2019-02-05T01:12:54.533Z,97.30
2019-02-05T01:15:24.590Z,97.40
2019-02-05T01:17:53.586Z,97.50
2019-02-05T01:20:22.792Z,97.80
2019-02-05T01:22:51.435Z,97.70
2019-02-05T01:25:20.943Z,97.40
2019-02-05T01:27:49.878Z,97.30
2019-02-05T01:30:23.607Z,97.30
2019-02-05T01:32:52.435Z,97.80
2019-02-05T01:35:21.549Z,98.10
2019-02-05T01:37:50.040Z,98.00
2019-02-05T01:40:21.410Z,98.20
2019-02-05T01:42:49.846Z,98.40
2019-02-05T01:45:19.898Z,98.30
2019-02-05T01:47:48.664Z,98.50
2019-02-05T01:50:25.348Z,98.80
2019-02-05T01:52:54.050Z,98.80
2019-02-05T01:55:22.844Z,99.00
2019-02-05T01:57:51.278Z,99.10
2019-02-05T02:00:25.119Z,99.50
2019-02-05T02:02:53.541Z,99.50
2019-02-05T02:05:22.089Z,99.50
2019-02-05T02:07:50.586Z,99.50
2019-02-05T02:10:24.327Z,99.40
2019-02-05T02:12:53.694Z,99.70
2019-02-05T02:15:22.274Z,99.60
2019-02-05T02:17:50.766Z,99.80
2019-02-05T02:20:20.781Z,99.70
2019-02-05T02:22:50.015Z,99.30
2019-02-05T02:25:19.325Z,99.50
2019-02-05T02:27:50.043Z,99.60
2019-02-05T02:30:24.634Z,99.50
2019-02-05T02:32:53.066Z,99.40
2019-02-05T02:35:21.753Z,99.20
2019-02-05T02:37:50.890Z,99.50
2019-02-05T02:40:19.604Z,99.60
2019-02-05T02:42:48.030Z,99.20
2019-02-05T02:45:16.510Z,99.00
2019-02-05T02:47:44.956Z,99.00
2019-02-05T02:50:18.798Z,98.90
2019-02-05T02:52:47.672Z,99.10
2019-02-05T02:55:16.665Z,99.30
2019-02-05T02:57:45.226Z,99.10
2019-02-05T03:00:16.622Z,99.30
2019-02-05T03:02:45.939Z,99.20
2019-02-05T03:05:17.054Z,99.10
2019-02-05T03:07:46.460Z,99.10
2019-02-05T03:10:20.868Z,99.10
2019-02-05T03:12:49.352Z,98.90
2019-02-05T03:15:18.331Z,99.10
2019-02-05T03:17:47.018Z,99.50
2019-02-05T03:20:17.358Z,99.60
2019-02-05T03:22:46.065Z,99.70
2019-02-05T03:25:18.179Z,99.80
2019-02-05T03:27:46.730Z,99.80
2019-02-05T03:30:20.628Z,99.90
2019-02-05T03:32:49.661Z,99.90
2019-02-05T03:35:20.257Z,99.70
2019-02-05T03:37:49.108Z,99.70
2019-02-05T03:40:30.435Z,99.90
2019-02-05T03:42:59.499Z,99.90
2019-02-05T03:45:29.259Z,99.70
2019-02-05T03:48:00.830Z,99.50
2019-02-05T03:50:31.294Z,99.50
2019-02-05T03:53:21.646Z,99.50
2019-02-05T03:56:14.275Z,99.50
2019-02-05T03:59:06.805Z,99.30
2019-02-05T04:01:44.438Z,99.20
2019-02-05T04:04:44.918Z,99.20
2019-02-05T04:07:19.409Z,99.20
2019-02-05T04:09:50.911Z,99.30
2019-02-05T04:12:34.365Z,99.40
2019-02-05T04:15:22.510Z,99.50
2019-02-05T04:17:53.998Z,99.50
2019-02-05T04:20:34.610Z,99.40
2019-02-05T04:23:37.978Z,99.40
2019-02-05T04:26:30.581Z,99.50
2019-02-05T04:29:08.358Z,99.80
2019-02-05T04:31:56.531Z,99.90
2019-02-05T04:34:55.668Z,99.90
2019-02-05T04:37:27.177Z,99.90
2019-02-05T04:40:28.736Z,99.80
2019-02-05T04:43:14.542Z,99.70
2019-02-05T04:46:02.658Z,99.80
2019-02-05T04:49:05.063Z,99.70
2019-02-05T04:51:45.394Z,99.60
2019-02-05T04:54:19.805Z,99.50
2019-02-05T04:57:05.703Z,99.60
2019-02-05T04:59:43.215Z,99.70
2019-02-05T05:02:32.301Z,99.80
2019-02-05T05:05:06.739Z,99.80
2019-02-05T05:07:44.068Z,99.80
2019-02-05T05:10:12.803Z,99.70
2019-02-05T05:12:41.225Z,99.90
2019-02-05T05:15:10.591Z,99.90
2019-02-05T05:17:39.190Z,99.90
2019-02-05T05:20:10.130Z,99.90
2019-02-05T05:22:38.685Z,99.90
2019-02-05T05:25:09.618Z,99.90
2019-02-05T05:27:38.283Z,99.90
2019-02-05T05:30:12.527Z,99.90
2019-02-05T05:32:41.020Z,99.90
2019-02-05T05:35:10.177Z,99.90
2019-02-05T05:37:38.606Z,99.90
2019-02-05T05:40:08.938Z,99.90
2019-02-05T05:42:37.627Z,99.90
2019-02-05T05:45:09.379Z,99.90
2019-02-05T05:47:37.886Z,99.90
2019-02-05T05:50:09.861Z,99.90
2019-02-05T05:52:38.307Z,99.90
2019-02-05T05:55:07.326Z,99.90
2019-02-05T05:57:36.094Z,99.90
2019-02-05T06:00:07.654Z,99.90
2019-02-05T06:02:36.083Z,99.90
2019-02-05T06:05:07.202Z,99.90
2019-02-05T06:07:35.874Z,99.90
2019-02-05T06:10:07.499Z,99.90
2019-02-05T06:12:35.991Z,99.90
2019-02-05T06:15:06.750Z,99.90
2019-02-05T06:17:35.539Z,99.90
2019-02-05T06:20:06.861Z,99.90
2019-02-05T06:22:35.562Z,99.90
2019-02-05T06:25:05.519Z,99.90
2019-02-05T06:27:33.936Z,99.90
2019-02-05T06:30:02.362Z,99.90
2019-02-05T06:32:31.039Z,99.90
2019-02-05T06:34:59.752Z,99.90
2019-02-05T06:37:28.206Z,99.90
2019-02-05T06:39:56.640Z,99.90
2019-02-05T06:42:25.406Z,99.90
2019-02-05T06:44:53.897Z,99.90
2019-02-05T06:47:22.383Z,99.90
2019-02-05T06:49:50.814Z,99.90
2019-02-05T06:52:19.226Z,99.90
2019-02-05T06:54:47.875Z,99.90
2019-02-05T06:57:16.392Z,99.90
2019-02-05T06:59:45.002Z,99.90
2019-02-05T07:02:13.493Z,99.90
2019-02-05T07:04:41.918Z,99.90
2019-02-05T07:07:10.328Z,99.90
2019-02-05T07:09:38.759Z,99.90
2019-02-05T07:12:07.242Z,99.90
2019-02-05T07:14:35.932Z,99.90
2019-02-05T07:17:04.514Z,99.90
2019-02-05T07:19:32.988Z,99.80
2019-02-05T07:22:01.656Z,99.80
2019-02-05T07:24:30.403Z,99.90
2019-02-05T07:26:59.192Z,99.90
2019-02-05T07:29:27.919Z,99.90
2019-02-05T07:31:56.622Z,99.90
2019-02-05T07:34:25.419Z,99.90
2019-02-05T07:36:54.120Z,99.90
2019-02-05T07:39:22.537Z,99.90
2019-02-05T07:41:54.101Z,99.90
2019-02-05T07:44:27.855Z,99.90
2019-02-05T07:46:56.649Z,99.90
2019-02-05T07:49:25.061Z,99.90
2019-02-05T07:51:53.862Z,99.90
2019-02-05T07:54:22.611Z,99.90
2019-02-05T07:56:51.455Z,99.90
2019-02-05T07:59:20.133Z,99.90
2019-02-05T08:01:48.634Z,99.90
2019-02-05T08:04:17.118Z,99.90
2019-02-05T08:06:45.621Z,99.90
2019-02-05T08:09:14.106Z,99.90
2019-02-05T08:11:42.770Z,99.90
2019-02-05T08:14:11.270Z,99.50
2019-02-05T08:16:39.685Z,99.40
2019-02-05T08:19:08.463Z,98.70
2019-02-05T08:21:36.998Z,98.70
2019-02-05T08:24:05.546Z,97.80
2019-02-05T08:26:34.261Z,97.60
2019-02-05T08:29:05.113Z,96.80
2019-02-05T08:31:33.738Z,96.70
2019-02-05T08:34:03.331Z,96.50
2019-02-05T08:36:32.380Z,95.90
2019-02-05T08:39:01.030Z,95.90
2019-02-05T08:41:29.821Z,95.40
2019-02-05T08:43:58.510Z,94.80
2019-02-05T08:46:27.200Z,95.00
2019-02-05T08:48:55.658Z,94.50
2019-02-05T08:51:24.391Z,94.00
2019-02-05T08:53:52.937Z,93.70
2019-02-05T08:56:21.486Z,93.70
2019-02-05T08:58:49.910Z,93.40
2019-02-05T09:01:18.464Z,92.20
2019-02-05T09:03:46.974Z,91.90
2019-02-05T09:06:16.067Z,91.60
2019-02-05T09:08:44.621Z,91.50
2019-02-05T09:11:13.111Z,91.10
2019-02-05T09:13:41.555Z,90.60
2019-02-05T09:16:10.036Z,90.30
2019-02-05T09:18:38.529Z,90.20
2019-02-05T09:21:06.968Z,90.30
2019-02-05T09:23:35.927Z,89.80
2019-02-05T09:26:04.607Z,90.00
2019-02-05T09:28:33.050Z,88.40
2019-02-05T09:31:01.471Z,89.00
2019-02-05T09:33:30.292Z,89.50
2019-02-05T09:35:58.743Z,90.30
2019-02-05T09:38:27.574Z,90.00
2019-02-05T09:40:56.558Z,90.20
2019-02-05T09:43:25.299Z,89.80
2019-02-05T09:45:53.996Z,89.50
2019-02-05T09:48:22.472Z,89.70
2019-02-05T09:50:51.161Z,88.90
2019-02-05T09:53:19.738Z,89.40
2019-02-05T09:55:48.230Z,90.20
2019-02-05T09:58:18.611Z,90.50
2019-02-05T10:00:47.070Z,90.80
2019-02-05T10:03:15.601Z,91.40
2019-02-05T10:05:44.464Z,92.20
2019-02-05T10:08:13.100Z,91.60
2019-02-05T10:10:41.650Z,91.40
2019-02-05T10:13:10.070Z,91.40
2019-02-05T10:15:42.113Z,91.20
2019-02-05T10:18:12.838Z,91.00
2019-02-05T10:20:41.419Z,90.50
2019-02-05T10:23:10.138Z,90.40
2019-02-05T10:25:39.093Z,90.40
2019-02-05T10:28:07.654Z,89.60
2019-02-05T10:30:41.627Z,88.90
2019-02-05T10:33:10.414Z,89.30
2019-02-05T10:35:39.015Z,89.80
2019-02-05T10:38:07.588Z,88.60
2019-02-05T10:40:36.169Z,89.40
2019-02-05T10:43:05.662Z,90.10
2019-02-05T10:45:34.809Z,89.70
2019-02-05T10:48:04.001Z,90.40
2019-02-05T10:50:32.695Z,90.30
2019-02-05T10:53:01.166Z,90.10
2019-02-05T10:55:29.676Z,88.70
2019-02-05T10:57:58.522Z,88.40
2019-02-05T11:00:29.435Z,88.10
2019-02-05T11:02:59.979Z,87.70
2019-02-05T11:05:30.102Z,87.70
2019-02-05T11:07:58.812Z,86.30
2019-02-05T11:10:27.524Z,86.90
2019-02-05T11:12:56.011Z,85.90
2019-02-05T11:15:27.643Z,85.50
2019-02-05T11:17:56.274Z,84.50
2019-02-05T11:20:27.275Z,82.80
2019-02-05T11:22:56.158Z,83.10
2019-02-05T11:25:25.440Z,83.30
2019-02-05T11:27:54.205Z,81.80
2019-02-05T11:30:31.654Z,81.70
2019-02-05T11:33:00.134Z,80.00
2019-02-05T11:35:29.303Z,76.90
2019-02-05T11:37:57.838Z,75.10
2019-02-05T11:40:34.555Z,72.20
2019-02-05T11:43:03.150Z,70.70
2019-02-05T11:45:32.419Z,62.10
2019-02-05T11:48:02.479Z,52.00
2019-02-05T11:50:31.267Z,42.30
2019-02-05T11:52:59.982Z,28.70
2019-02-05T11:55:31.691Z,19.90
2019-02-05T11:58:00.428Z,10.20
2019-02-05T12:00:32.804Z,6.60
2019-02-05T12:03:01.117Z,4.10
2019-02-05T12:05:29.593Z,2.20
2019-02-05T12:07:58.361Z,1.00
2019-02-05T12:10:27.025Z,1.00
2019-02-05T12:12:55.486Z,1.00
2019-02-05T12:17:52.138Z,1.00
2019-02-05T12:20:20.846Z,1.00
2019-02-05T12:22:51.641Z,1.00
2019-02-05T12:25:24.559Z,1.00
2019-02-05T12:27:53.156Z,1.00
2019-02-05T12:30:44.472Z,1.00
2019-02-05T12:33:05.502Z,1.00
2019-02-05T12:35:33.991Z,1.00
2019-02-05T12:38:03.035Z,1.00
2019-02-05T12:40:31.735Z,1.00
2019-02-05T12:43:00.195Z,1.00
2019-02-05T12:45:30.951Z,1.00
2019-02-05T12:47:59.461Z,1.00
2019-02-05T12:50:34.122Z,1.00
2019-02-05T12:53:02.976Z,1.00
2019-02-05T12:55:31.466Z,1.00
2019-02-05T12:58:00.162Z,1.00
2019-02-05T13:00:39.810Z,1.00
2019-02-05T13:03:09.578Z,1.00
2019-02-05T13:05:38.636Z,1.00
2019-02-05T13:08:07.758Z,1.00
2019-02-05T13:10:39.250Z,1.00
2019-02-05T13:13:08.126Z,1.00
2019-02-05T13:15:37.041Z,1.00
2019-02-05T13:20:34.039Z,7.60
2019-02-05T13:23:04.059Z,10.60
2019-02-05T13:25:34.220Z,13.90
2019-02-05T13:28:02.877Z,16.40
2019-02-05T13:30:35.943Z,16.90
2019-02-05T13:33:06.458Z,20.60
2019-02-05T13:35:35.150Z,24.20
2019-02-05T13:38:04.105Z,26.90
2019-02-05T13:40:32.625Z,28.10
2019-02-05T13:43:01.473Z,28.10
2019-02-05T13:45:32.642Z,28.80
2019-02-05T13:48:02.677Z,28.50
2019-02-05T13:50:33.768Z,28.50
2019-02-05T13:53:02.487Z,28.40
2019-02-05T13:55:33.051Z,28.40
2019-02-05T13:58:01.861Z,27.30
2019-02-05T14:00:32.914Z,29.40
2019-02-05T14:03:01.609Z,30.90
2019-02-05T14:05:30.120Z,31.30
2019-02-05T14:07:58.533Z,31.90
2019-02-05T14:10:32.421Z,34.30
2019-02-05T14:13:00.846Z,34.40
2019-02-05T14:15:34.607Z,35.50
2019-02-05T14:18:03.581Z,35.40
2019-02-05T14:20:32.022Z,35.10
2019-02-05T14:23:00.774Z,36.20
2019-02-05T14:25:29.733Z,36.20
2019-02-05T14:27:58.228Z,36.00
2019-02-05T14:30:35.903Z,36.80
2019-02-05T14:33:04.635Z,36.40
2019-02-05T14:35:33.205Z,34.30
2019-02-05T14:38:01.800Z,33.90
2019-02-05T14:40:31.120Z,34.20
2019-02-05T14:43:00.317Z,37.00
2019-02-05T14:45:28.757Z,39.30
2019-02-05T14:47:57.516Z,39.60
2019-02-05T14:50:34.625Z,44.00
2019-02-05T14:53:03.593Z,45.40
2019-02-05T14:55:32.088Z,47.10
2019-02-05T14:58:00.505Z,47.60
2019-02-05T15:00:33.821Z,46.50
2019-02-05T15:03:04.295Z,48.80
2019-02-05T15:05:32.728Z,51.70
2019-02-05T15:08:01.223Z,57.50
2019-02-05T15:10:29.718Z,62.70
2019-02-05T15:12:58.210Z,65.60
2019-02-05T15:15:28.376Z,72.70
2019-02-05T15:17:57.197Z,76.90
2019-02-05T15:20:36.223Z,80.10
2019-02-05T15:23:05.944Z,84.20
2019-02-05T15:25:34.858Z,85.50
2019-02-05T15:28:03.651Z,87.20
2019-02-05T15:30:37.468Z,88.30
2019-02-05T15:33:10.166Z,87.50
2019-02-05T15:35:40.334Z,88.40
2019-02-05T15:38:08.825Z,89.70
2019-02-05T15:40:37.425Z,90.50
2019-02-05T15:43:06.297Z,90.80
2019-02-05T15:45:34.968Z,90.80
2019-02-05T15:48:03.736Z,91.50
2019-02-05T15:50:32.447Z,92.00
2019-02-05T15:53:00.933Z,91.60
2019-02-05T15:55:29.375Z,92.30
2019-02-05T15:57:58.420Z,92.30
2019-02-05T16:00:28.481Z,92.90
2019-02-05T16:02:56.990Z,93.30
2019-02-05T16:05:25.410Z,93.50
2019-02-05T16:07:53.850Z,93.90
2019-02-05T16:10:26.973Z,94.80
2019-02-05T16:12:55.918Z,95.30
2019-02-05T16:15:24.338Z,95.20
2019-02-05T16:17:52.910Z,95.10
2019-02-05T16:20:22.078Z,95.10
2019-02-05T16:22:51.255Z,95.00
2019-02-05T16:25:19.681Z,95.40
2019-02-05T16:27:48.123Z,96.00
2019-02-05T16:30:30.440Z,96.40
2019-02-05T16:32:58.882Z,96.40
2019-02-05T16:35:27.305Z,97.00
2019-02-05T16:37:55.989Z,97.40
2019-02-05T16:40:27.806Z,97.70
2019-02-05T16:42:56.411Z,97.80
2019-02-05T16:45:27.376Z,98.10
2019-02-05T16:47:55.874Z,98.20
2019-02-05T16:50:26.737Z,98.60
2019-02-05T16:52:55.569Z,98.50
2019-02-05T16:55:24.207Z,98.40
2019-02-05T16:57:52.718Z,99.30
2019-02-05T17:00:23.684Z,99.70
2019-02-05T17:02:52.750Z,99.90
2019-02-05T17:05:22.763Z,99.80
2019-02-05T17:07:51.190Z,99.40
2019-02-05T17:10:21.355Z,99.20
2019-02-05T17:12:50.044Z,99.00
2019-02-05T17:15:19.505Z,98.90
2019-02-05T17:17:48.076Z,98.90
2019-02-05T17:20:22.530Z,98.80
2019-02-05T17:22:51.390Z,98.70
2019-02-05T17:25:21.950Z,98.90
2019-02-05T17:27:51.271Z,99.20
2019-02-05T17:30:22.014Z,99.40
2019-02-05T17:32:50.693Z,99.80
2019-02-05T17:35:19.335Z,99.90
2019-02-05T17:37:47.864Z,99.90
2019-02-05T17:40:18.447Z,99.90
2019-02-05T17:42:47.136Z,99.90
2019-02-05T17:45:18.399Z,99.90
2019-02-05T17:47:46.955Z,99.90
2019-02-05T17:50:15.526Z,99.90
2019-02-05T17:52:43.963Z,99.90
2019-02-05T17:55:14.904Z,99.90
2019-02-05T17:57:43.901Z,99.90
2019-02-05T18:00:21.099Z,99.90
2019-02-05T18:02:51.671Z,99.90
2019-02-05T18:05:20.897Z,99.90
2019-02-05T18:07:49.390Z,99.90
2019-02-05T18:10:23.738Z,99.90
2019-02-05T18:12:52.159Z,99.90
2019-02-05T18:15:23.299Z,99.90
2019-02-05T18:17:51.722Z,99.90
2019-02-05T18:20:20.361Z,99.90
2019-02-05T18:22:49.205Z,99.90
2019-02-05T18:25:26.462Z,99.90
2019-02-05T18:27:54.948Z,99.90
2019-02-05T18:30:28.559Z,99.90
2019-02-05T18:33:04.130Z,99.90
2019-02-05T18:35:27.350Z,99.90
2019-02-05T18:37:56.001Z,99.90
2019-02-05T18:40:28.204Z,99.90
2019-02-05T18:42:56.859Z,99.90
2019-02-05T18:45:25.396Z,99.90
2019-02-05T18:47:53.813Z,99.90
2019-02-05T18:50:26.930Z,99.90
2019-02-05T18:52:55.494Z,99.90
2019-02-05T18:55:43.806Z,99.90
2019-02-05T18:58:12.229Z,99.90
2019-02-05T19:00:43.277Z,99.90
2019-02-05T19:03:16.165Z,99.90
2019-02-05T19:05:42.465Z,99.90
2019-02-05T19:08:11.571Z,99.90
2019-02-05T19:10:40.412Z,99.90
2019-02-05T19:13:08.915Z,99.90
2019-02-05T19:15:39.666Z,99.90
2019-02-05T19:18:09.378Z,99.90
2019-02-05T19:20:37.814Z,99.90
2019-02-05T19:23:08.192Z,99.90
2019-02-05T19:25:44.744Z,99.90
2019-02-05T19:28:18.146Z,99.90
2019-02-05T19:30:51.261Z,99.90
2019-02-05T19:33:27.187Z,99.90
2019-02-05T19:35:50.642Z,99.90
2019-02-05T19:38:19.341Z,99.90
2019-02-05T19:40:57.219Z,99.90
2019-02-05T19:43:23.110Z,99.90
2019-02-05T19:45:56.555Z,99.90
2019-02-05T19:48:30.234Z,99.90
2019-02-05T19:50:59.461Z,99.90
2019-02-05T19:53:28.684Z,99.90
2019-02-05T19:55:58.366Z,99.90
2019-02-05T19:58:27.187Z,99.90
2019-02-05T20:00:56.362Z,99.90
2019-02-05T20:03:25.162Z,99.90
2019-02-05T20:05:55.466Z,99.90
2019-02-05T20:08:26.909Z,99.90
2019-02-05T20:10:57.721Z,99.90
2019-02-05T20:13:26.374Z,99.90
2019-02-05T20:15:55.639Z,99.90
2019-02-05T20:18:24.188Z,99.90
2019-02-05T20:20:52.739Z,99.90
2019-02-05T20:23:21.216Z,99.90
2019-02-05T20:25:49.650Z,99.90
2019-02-05T20:28:18.482Z,99.90
2019-02-05T20:30:46.904Z,99.90
2019-02-05T20:33:16.847Z,99.90
2019-02-05T20:35:45.274Z,99.90
2019-02-05T20:38:13.716Z,99.90
2019-02-05T20:40:42.195Z,99.90
2019-02-05T20:43:10.651Z,99.90
2019-02-05T20:45:39.092Z,99.90
2019-02-05T20:48:07.738Z,99.90
2019-02-05T20:50:36.797Z,99.90
2019-02-05T20:53:13.660Z,99.90
2019-02-05T20:55:35.695Z,99.90
2019-02-05T20:58:04.542Z,99.90
2019-02-05T21:03:11.860Z,99.90
2019-02-05T21:05:40.801Z,99.90
2019-02-05T21:08:09.337Z,99.90
2019-02-05T21:10:38.278Z,99.90
2019-02-05T21:13:06.742Z,99.90
2019-02-05T21:15:35.401Z,99.90
2019-02-05T21:18:04.462Z,99.90
2019-02-05T21:20:33.951Z,99.90
2019-02-05T21:23:02.793Z,99.90
2019-02-05T21:25:31.204Z,99.90
2019-02-05T21:27:59.709Z,99.90
2019-02-05T21:30:28.954Z,99.90
2019-02-05T21:32:57.377Z,99.90
2019-02-05T21:35:26.033Z,99.90
2019-02-05T21:37:54.504Z,99.90
2019-02-05T21:40:26.966Z,99.90
2019-02-05T21:42:55.451Z,99.90
2019-02-05T21:45:30.830Z,99.90
2019-02-05T21:47:59.650Z,99.90
2019-02-05T21:50:28.310Z,99.90
2019-02-05T21:52:57.137Z,99.90
2019-02-05T21:55:27.376Z,99.90
2019-02-05T21:57:56.364Z,99.90
2019-02-05T22:00:30.455Z,99.90
2019-02-05T22:02:59.090Z,99.90
2019-02-05T22:05:29.129Z,99.90
2019-02-05T22:07:58.043Z,99.90
2019-02-05T22:10:26.567Z,99.90
2019-02-05T22:12:55.030Z,99.90
2019-02-05T22:15:23.869Z,99.90
2019-02-05T22:17:52.790Z,99.90
2019-02-05T22:20:26.287Z,99.90
2019-02-05T22:22:57.287Z,99.90
2019-02-05T22:25:32.125Z,99.90
2019-02-05T22:28:01.781Z,99.90
2019-02-05T22:30:38.341Z,99.90
2019-02-05T22:33:08.390Z,99.90
2019-02-05T22:35:37.202Z,99.90
2019-02-05T22:38:05.902Z,99.90
2019-02-05T22:40:34.471Z,99.90
2019-02-05T22:43:03.610Z,99.90
2019-02-05T22:45:32.572Z,99.90
2019-02-05T22:48:01.055Z,99.90
2019-02-05T22:50:34.594Z,99.90
2019-02-05T22:53:06.297Z,99.90
2019-02-05T22:55:35.072Z,99.90
2019-02-05T22:58:03.759Z,99.90
2019-02-05T23:00:50.818Z,99.90
2019-02-05T23:03:22.537Z,99.90
2019-02-05T23:06:25.067Z,99.90
2019-02-05T23:08:55.621Z,99.90
2019-02-05T23:11:42.286Z,99.90
2019-02-05T23:14:10.701Z,99.90
2019-02-05T23:16:39.130Z,99.90
2019-02-05T23:19:07.537Z,99.90
2019-02-05T23:21:36.634Z,99.90
2019-02-05T23:24:05.530Z,99.90
2019-02-05T23:26:33.945Z,99.90
2019-02-05T23:29:02.357Z,99.90
2019-02-05T23:31:30.783Z,99.90
2019-02-05T23:33:59.551Z,99.90
2019-02-05T23:36:27.973Z,99.90
2019-02-05T23:38:57.026Z,99.90
2019-02-05T23:41:25.452Z,99.90
2019-02-05T23:43:53.886Z,99.90
2019-02-05T23:46:22.309Z,99.90
2019-02-05T23:48:51.015Z,99.90
2019-02-05T23:51:19.600Z,99.90
2019-02-05T23:53:48.070Z,99.90
2019-02-05T23:56:25.445Z,99.90
2019-02-05T23:58:47.187Z,99.90
